Time;durP1;ratioP1;P1;durP2;ratioP2;P2;SDS_P1;SDS_P2;PMS_P1;PMS_P2;Temp;Humidity;BMP_temperature;BMP_pressure;BME280_temperature;BME280_humidity;BME280_pressure;Samples;Min_cycle;Max_cycle;Signal;HPM_P1;HPM_P2
2021/09/15 00:00:41;;;;;;;38.85;4.15;;;;;;;;;;5058552;28;20070;-41
2021/09/15 00:03:08;;;;;;;27.60;4.32;;;;;;;;;;5055600;28;20396;-41
2021/09/15 00:05:34;;;;;;;37.90;4.20;;;;;;;;;;5053982;28;20039;-41
2021/09/15 00:08:02;;;;;;;31.35;3.28;;;;;;;;;;5055355;28;20029;-40
2021/09/15 00:10:29;;;;;;;44.05;5.07;;;;;;;;;;5051924;28;20032;-40
2021/09/15 00:12:56;;;;;;;36.05;4.10;;;;;;;;;;5056231;28;20025;-44
2021/09/15 00:15:23;;;;;;;27.05;4.10;;;;;;;;;;5053826;28;20032;-44
2021/09/15 00:17:50;;;;;;;40.72;4.65;;;;;;;;;;5036557;28;20477;-44
2021/09/15 00:20:17;;;;;;;29.25;4.50;;;;;;;;;;5059752;28;20024;-44
2021/09/15 00:22:44;;;;;;;36.13;4.20;;;;;;;;;;5057751;28;20020;-43
2021/09/15 00:25:11;;;;;;;28.35;4.18;;;;;;;;;;5064034;28;20044;-43
2021/09/15 00:27:38;;;;;;;30.73;4.90;;;;;;;;;;5054136;28;20021;-43
2021/09/15 00:30:06;;;;;;;37.53;4.93;;;;;;;;;;5058785;28;20040;-43
2021/09/15 00:32:33;;;;;;;38.45;4.57;;;;;;;;;;5057934;28;20024;-43
2021/09/15 00:35:00;;;;;;;29.20;4.15;;;;;;;;;;5052235;28;20557;-45
2021/09/15 00:37:27;;;;;;;26.27;4.05;;;;;;;;;;5058224;28;20028;-44
2021/09/15 00:39:54;;;;;;;27.85;3.78;;;;;;;;;;5058300;28;20016;-40
2021/09/15 00:42:21;;;;;;;21.15;4.22;;;;;;;;;;5054699;28;20055;-42
2021/09/15 00:44:48;;;;;;;25.02;4.00;;;;;;;;;;5056797;28;20029;-40
2021/09/15 00:47:15;;;;;;;27.17;3.80;;;;;;;;;;5053035;28;20094;-40
2021/09/15 00:49:42;;;;;;;21.00;4.40;;;;;;;;;;5052384;28;20032;-41
2021/09/15 00:52:09;;;;;;;28.88;4.00;;;;;;;;;;5055854;28;20035;-39
2021/09/15 00:54:36;;;;;;;24.17;3.53;;;;;;;;;;5064786;28;20038;-40
2021/09/15 00:57:03;;;;;;;23.38;3.50;;;;;;;;;;5051875;28;20480;-38
2021/09/15 00:59:30;;;;;;;23.20;3.53;;;;;;;;;;5055766;28;20079;-41
2021/09/15 01:01:57;;;;;;;26.27;3.70;;;;;;;;;;5049847;28;20044;-41
2021/09/15 01:04:24;;;;;;;20.85;3.72;;;;;;;;;;5053158;28;20039;-37
2021/09/15 01:06:51;;;;;;;29.77;5.03;;;;;;;;;;5048513;28;20025;-43
2021/09/15 01:09:18;;;;;;;23.27;4.82;;;;;;;;;;5051471;28;20171;-39
2021/09/15 01:11:46;;;;;;;30.30;4.35;;;;;;;;;;5055373;28;20044;-39
2021/09/15 01:14:13;;;;;;;26.58;4.90;;;;;;;;;;5043258;28;20020;-38
2021/09/15 01:17:02;;;;;;;33.22;6.43;;;;;;;;;;5059948;28;20515;-41
2021/09/15 01:19:29;;;;;;;31.42;5.90;;;;;;;;;;5050215;28;20120;-42
2021/09/15 01:21:56;;;;;;;37.85;6.95;;;;;;;;;;5050041;28;20025;-38
2021/09/15 01:24:24;;;;;;;31.90;6.07;;;;;;;;;;5059663;28;20475;-42
2021/09/15 01:26:51;;;;;;;35.28;6.22;;;;;;;;;;5050886;28;20104;-41
2021/09/15 01:29:20;;;;;;;30.42;6.35;;;;;;;;;;5050469;28;20013;-42
2021/09/15 01:32:03;;;;;;;30.95;6.68;;;;;;;;;;5050465;28;20178;-41
2021/09/15 01:34:34;;;;;;;29.52;7.15;;;;;;;;;;5059653;28;20053;-40
2021/09/15 01:37:01;;;;;;;26.05;5.65;;;;;;;;;;5033246;28;20025;-40
2021/09/15 01:39:28;;;;;;;26.90;5.88;;;;;;;;;;5049951;28;20051;-42
2021/09/15 01:41:59;;;;;;;29.67;6.10;;;;;;;;;;5050542;28;20396;-41
2021/09/15 01:44:32;;;;;;;29.38;6.05;;;;;;;;;;5058471;28;20531;-42
2021/09/15 01:47:00;;;;;;;25.17;5.60;;;;;;;;;;5050888;28;20120;-41
2021/09/15 01:49:28;;;;;;;24.42;5.25;;;;;;;;;;5049924;28;20025;-41
2021/09/15 01:51:55;;;;;;;24.75;5.40;;;;;;;;;;5070446;28;20099;-41
2021/09/15 01:54:22;;;;;;;22.75;5.63;;;;;;;;;;5057121;28;20029;-40
2021/09/15 01:56:49;;;;;;;25.38;5.50;;;;;;;;;;5067593;28;20013;-41
2021/09/15 01:59:16;;;;;;;22.45;5.10;;;;;;;;;;5054392;28;20024;-43
2021/09/15 02:01:43;;;;;;;28.52;5.65;;;;;;;;;;5050467;28;20799;-42
2021/09/15 02:04:13;;;;;;;20.17;5.45;;;;;;;;;;5050094;28;20014;-41
2021/09/15 02:06:40;;;;;;;23.92;4.85;;;;;;;;;;5049096;28;20029;-43
2021/09/15 02:09:08;;;;;;;25.30;4.57;;;;;;;;;;5050480;28;20013;-40
2021/09/15 02:11:36;;;;;;;19.23;4.75;;;;;;;;;;5052177;28;20071;-39
2021/09/15 02:14:03;;;;;;;25.80;4.80;;;;;;;;;;5054307;28;20028;-40
2021/09/15 02:16:30;;;;;;;32.55;4.60;;;;;;;;;;5051739;28;20539;-41
2021/09/15 02:19:20;;;;;;;17.83;4.18;;;;;;;;;;5054037;28;20033;-39
2021/09/15 02:21:47;;;;;;;19.52;4.53;;;;;;;;;;5056319;28;20017;-39
2021/09/15 02:24:15;;;;;;;21.05;5.10;;;;;;;;;;5058279;28;20151;-42
2021/09/15 02:26:42;;;;;;;22.45;4.80;;;;;;;;;;5059919;28;20040;-40
2021/09/15 02:29:09;;;;;;;18.90;4.75;;;;;;;;;;5061015;28;20491;-39
2021/09/15 02:31:36;;;;;;;21.52;4.70;;;;;;;;;;5059773;28;20036;-41
2021/09/15 02:34:03;;;;;;;20.75;4.78;;;;;;;;;;5059261;28;20036;-36
2021/09/15 02:36:31;;;;;;;17.95;4.63;;;;;;;;;;5062498;28;20043;-39
2021/09/15 02:38:58;;;;;;;20.42;4.30;;;;;;;;;;5060449;28;20032;-39
2021/09/15 02:41:25;;;;;;;15.52;3.92;;;;;;;;;;5062025;28;20082;-38
2021/09/15 02:43:52;;;;;;;19.20;4.38;;;;;;;;;;5060082;28;20028;-38
2021/09/15 02:46:19;;;;;;;12.55;3.97;;;;;;;;;;5060071;28;20025;-40
2021/09/15 02:48:46;;;;;;;23.88;4.22;;;;;;;;;;5060577;28;20031;-39
2021/09/15 02:51:13;;;;;;;16.95;4.25;;;;;;;;;;5063766;28;20044;-39
2021/09/15 02:53:40;;;;;;;18.90;3.92;;;;;;;;;;5057444;28;20025;-39
2021/09/15 02:56:07;;;;;;;17.05;3.80;;;;;;;;;;5053755;28;20047;-40
2021/09/15 02:58:34;;;;;;;15.60;3.88;;;;;;;;;;5055978;28;20032;-39
2021/09/15 03:01:02;;;;;;;18.75;3.55;;;;;;;;;;5055636;28;20025;-42
2021/09/15 03:03:29;;;;;;;18.05;3.60;;;;;;;;;;5055160;28;20657;-42
2021/09/15 03:05:56;;;;;;;19.80;3.88;;;;;;;;;;5054092;28;20064;-40
2021/09/15 03:08:23;;;;;;;22.50;4.50;;;;;;;;;;5055909;28;20103;-40
2021/09/15 03:10:50;;;;;;;15.50;3.85;;;;;;;;;;5055103;28;20043;-39
2021/09/15 03:13:17;;;;;;;16.27;3.88;;;;;;;;;;5065441;28;20029;-40
2021/09/15 03:15:44;;;;;;;14.57;4.50;;;;;;;;;;5068775;28;20052;-40
2021/09/15 03:18:11;;;;;;;19.38;3.70;;;;;;;;;;5072312;28;20028;-40
2021/09/15 03:20:38;;;;;;;17.23;3.70;;;;;;;;;;5070237;28;20043;-39
2021/09/15 03:23:05;;;;;;;15.95;3.90;;;;;;;;;;5072089;28;20103;-39
2021/09/15 03:25:32;;;;;;;16.17;3.85;;;;;;;;;;5067097;28;20070;-39
2021/09/15 03:27:59;;;;;;;14.57;3.70;;;;;;;;;;5072175;28;20055;-40
2021/09/15 03:30:26;;;;;;;14.35;3.47;;;;;;;;;;5069939;28;20391;-40
2021/09/15 03:32:53;;;;;;;14.07;3.90;;;;;;;;;;5053626;28;20115;-37
2021/09/15 03:35:20;;;;;;;14.35;3.92;;;;;;;;;;5051080;28;20496;-38
2021/09/15 03:37:47;;;;;;;11.52;3.17;;;;;;;;;;5069611;28;20066;-40
2021/09/15 03:40:14;;;;;;;12.18;3.55;;;;;;;;;;5071546;28;20020;-40
2021/09/15 03:42:41;;;;;;;12.52;3.47;;;;;;;;;;5069834;28;20017;-39
2021/09/15 03:45:09;;;;;;;16.80;4.05;;;;;;;;;;5071374;28;20381;-40
2021/09/15 03:47:36;;;;;;;15.10;3.20;;;;;;;;;;5066986;28;20408;-40
2021/09/15 03:50:04;;;;;;;13.00;3.47;;;;;;;;;;5071562;28;20472;-39
2021/09/15 03:52:31;;;;;;;10.63;3.35;;;;;;;;;;5072962;28;20060;-39
2021/09/15 03:54:57;;;;;;;9.27;3.13;;;;;;;;;;5054732;28;20032;-37
2021/09/15 03:57:24;;;;;;;11.45;3.22;;;;;;;;;;5068459;28;20016;-39
2021/09/15 03:59:51;;;;;;;8.88;3.08;;;;;;;;;;5072738;28;20029;-38
2021/09/15 04:02:18;;;;;;;9.45;2.40;;;;;;;;;;5072030;28;20016;-39
2021/09/15 04:04:45;;;;;;;9.98;2.88;;;;;;;;;;5072729;28;20541;-39
2021/09/15 04:07:13;;;;;;;8.05;2.90;;;;;;;;;;5067954;28;20151;-37
2021/09/15 04:09:40;;;;;;;11.60;2.95;;;;;;;;;;5072968;28;20472;-40
2021/09/15 04:12:07;;;;;;;12.75;3.30;;;;;;;;;;5072243;28;20073;-40
2021/09/15 04:14:34;;;;;;;8.98;2.58;;;;;;;;;;5072645;28;20012;-40
2021/09/15 04:17:01;;;;;;;8.57;2.83;;;;;;;;;;5068033;28;20039;-40
2021/09/15 04:19:30;;;;;;;9.90;3.05;;;;;;;;;;5072942;28;20495;-40
2021/09/15 04:21:58;;;;;;;11.57;3.20;;;;;;;;;;5072094;28;20038;-40
2021/09/15 04:31:10;;;;;;;12.57;3.03;;;;;;;;;;5072122;28;20016;-39
2021/09/15 04:32:51;;;;;;;9.55;2.50;;;;;;;;;;5058791;28;20031;-40
2021/09/15 04:35:18;;;;;;;8.95;2.60;;;;;;;;;;5072047;28;20047;-39
2021/09/15 04:37:45;;;;;;;11.60;2.67;;;;;;;;;;5067273;28;20029;-39
2021/09/15 04:40:12;;;;;;;6.60;2.50;;;;;;;;;;5072280;28;20381;-39
2021/09/15 04:42:39;;;;;;;7.32;2.45;;;;;;;;;;5071857;28;20012;-39
2021/09/15 04:45:07;;;;;;;12.80;2.72;;;;;;;;;;5071756;28;20135;-41
2021/09/15 04:47:34;;;;;;;7.45;2.05;;;;;;;;;;5067014;28;20070;-39
2021/09/15 04:50:00;;;;;;;6.07;2.38;;;;;;;;;;5072250;28;20028;-40
2021/09/15 04:52:28;;;;;;;10.40;2.75;;;;;;;;;;5070978;28;20099;-40
2021/09/15 04:54:55;;;;;;;7.65;2.40;;;;;;;;;;5071706;28;20054;-41
2021/09/15 04:57:21;;;;;;;6.78;2.50;;;;;;;;;;5069120;28;20021;-40
2021/09/15 04:59:48;;;;;;;10.63;2.45;;;;;;;;;;5069093;28;20024;-39
2021/09/15 05:02:15;;;;;;;6.35;2.05;;;;;;;;;;5071508;28;20055;-40
2021/09/15 05:04:42;;;;;;;8.18;2.25;;;;;;;;;;5071910;28;20064;-38
2021/09/15 05:07:10;;;;;;;7.63;2.55;;;;;;;;;;5071106;28;20020;-40
2021/09/15 05:09:37;;;;;;;8.85;2.22;;;;;;;;;;5067245;28;20483;-40
2021/09/15 05:12:04;;;;;;;6.15;2.13;;;;;;;;;;5071256;28;20388;-41
2021/09/15 05:14:31;;;;;;;6.45;2.10;;;;;;;;;;5053358;28;20028;-40
2021/09/15 05:16:58;;;;;;;5.63;2.17;;;;;;;;;;5071081;28;20095;-41
2021/09/15 05:19:25;;;;;;;7.43;3.28;;;;;;;;;;5066914;28;20020;-40
2021/09/15 05:21:52;;;;;;;6.45;2.00;;;;;;;;;;5071179;28;20028;-40
2021/09/15 05:24:19;;;;;;;6.60;2.20;;;;;;;;;;5071308;28;20008;-40
2021/09/15 05:26:46;;;;;;;5.32;1.95;;;;;;;;;;5071342;28;20068;-40
2021/09/15 05:29:13;;;;;;;5.68;1.90;;;;;;;;;;5066493;28;20055;-41
2021/09/15 05:31:40;;;;;;;9.35;2.30;;;;;;;;;;5071041;28;20074;-37
2021/09/15 05:34:07;;;;;;;4.90;2.08;;;;;;;;;;5055223;28;20028;-40
2021/09/15 05:36:34;;;;;;;4.35;2.05;;;;;;;;;;5071430;28;20052;-39
2021/09/15 05:39:01;;;;;;;5.38;1.88;;;;;;;;;;5066827;28;20472;-40
2021/09/15 05:41:28;;;;;;;4.18;1.83;;;;;;;;;;5071737;28;20100;-40
2021/09/15 05:43:55;;;;;;;6.88;1.80;;;;;;;;;;5071852;28;20028;-39
2021/09/15 05:46:22;;;;;;;7.35;2.42;;;;;;;;;;5071362;28;20032;-40
2021/09/15 05:48:49;;;;;;;6.60;1.98;;;;;;;;;;5067536;28;20090;-40
2021/09/15 05:51:16;;;;;;;7.75;1.90;;;;;;;;;;5071473;28;20019;-40
2021/09/15 05:53:43;;;;;;;6.82;2.10;;;;;;;;;;5071584;28;20028;-39
2021/09/15 05:56:10;;;;;;;5.05;2.05;;;;;;;;;;5071759;28;20021;-40
2021/09/15 05:58:37;;;;;;;5.63;2.33;;;;;;;;;;5069951;28;20086;-39
2021/09/15 06:01:06;;;;;;;5.90;1.80;;;;;;;;;;5068144;28;20028;-40
2021/09/15 06:03:33;;;;;;;3.42;1.60;;;;;;;;;;5071451;28;20112;-40
2021/09/15 06:06:00;;;;;;;4.95;1.73;;;;;;;;;;5071391;28;20088;-39
2021/09/15 06:08:27;;;;;;;4.70;1.83;;;;;;;;;;5070716;28;20464;-41
2021/09/15 06:10:54;;;;;;;4.38;1.75;;;;;;;;;;5066754;28;20456;-40
2021/09/15 06:13:22;;;;;;;3.97;1.60;;;;;;;;;;5071431;28;20021;-40
2021/09/15 06:15:49;;;;;;;4.47;1.85;;;;;;;;;;5071093;28;20078;-40
2021/09/15 06:18:16;;;;;;;5.28;1.90;;;;;;;;;;5071279;28;20103;-41
2021/09/15 06:20:43;;;;;;;5.05;1.77;;;;;;;;;;5066431;28;20028;-39
2021/09/15 06:23:11;;;;;;;6.13;1.83;;;;;;;;;;5071141;28;20444;-40
2021/09/15 06:25:41;;;;;;;4.60;1.98;;;;;;;;;;5072078;28;20036;-40
2021/09/15 06:28:08;;;;;;;4.72;1.70;;;;;;;;;;5075101;28;20403;-40
2021/09/15 06:30:36;;;;;;;4.25;1.80;;;;;;;;;;5070293;28;20074;-41
2021/09/15 06:33:03;;;;;;;4.25;1.35;;;;;;;;;;5074233;28;20023;-40
2021/09/15 06:35:30;;;;;;;3.33;1.60;;;;;;;;;;5075129;28;20174;-40
2021/09/15 06:37:57;;;;;;;3.17;1.38;;;;;;;;;;5075002;28;20021;-39
2021/09/15 06:40:24;;;;;;;4.63;1.67;;;;;;;;;;5069939;28;20032;-39
2021/09/15 06:42:51;;;;;;;3.72;1.65;;;;;;;;;;5074918;28;20020;-40
2021/09/15 06:45:18;;;;;;;4.65;1.63;;;;;;;;;;5074805;28;20162;-38
2021/09/15 06:47:46;;;;;;;3.28;1.70;;;;;;;;;;5056903;28;20032;-40
2021/09/15 06:50:15;;;;;;;3.05;1.48;;;;;;;;;;5071072;28;20396;-40
2021/09/15 06:52:42;;;;;;;3.75;1.55;;;;;;;;;;5074005;28;20384;-40
2021/09/15 06:55:09;;;;;;;4.60;1.70;;;;;;;;;;5074887;28;20035;-39
2021/09/15 06:57:36;;;;;;;6.90;1.70;;;;;;;;;;5074845;28;20019;-38
2021/09/15 07:00:04;;;;;;;3.20;1.33;;;;;;;;;;5073408;28;20091;-37
2021/09/15 07:02:31;;;;;;;5.88;1.40;;;;;;;;;;5071235;28;20101;-38
2021/09/15 07:04:59;;;;;;;3.80;1.52;;;;;;;;;;5074552;28;20033;-40
2021/09/15 07:07:26;;;;;;;3.50;1.40;;;;;;;;;;5074669;28;20024;-41
2021/09/15 07:09:53;;;;;;;3.78;1.40;;;;;;;;;;5074575;28;20020;-39
2021/09/15 07:12:20;;;;;;;3.22;1.50;;;;;;;;;;5069595;28;20032;-40
2021/09/15 07:14:47;;;;;;;4.40;1.52;;;;;;;;;;5074603;28;20487;-39
2021/09/15 07:17:14;;;;;;;1.90;1.08;;;;;;;;;;5074314;28;20016;-40
2021/09/15 07:19:41;;;;;;;2.67;1.27;;;;;;;;;;5074148;28;20522;-40
2021/09/15 07:22:08;;;;;;;3.60;1.02;;;;;;;;;;5069438;28;20031;-40
2021/09/15 07:24:35;;;;;;;3.38;1.48;;;;;;;;;;5074176;28;20546;-40
2021/09/15 07:27:02;;;;;;;3.30;1.40;;;;;;;;;;5074108;28;20056;-39
2021/09/15 07:29:29;;;;;;;4.15;1.40;;;;;;;;;;5074122;28;20056;-40
2021/09/15 07:31:56;;;;;;;2.97;1.10;;;;;;;;;;5069309;28;20455;-39
2021/09/15 07:34:23;;;;;;;2.92;1.30;;;;;;;;;;5073651;28;20016;-39
2021/09/15 07:36:50;;;;;;;5.72;1.42;;;;;;;;;;5055378;28;20024;-40
2021/09/15 07:39:17;;;;;;;3.28;1.30;;;;;;;;;;5073458;28;20025;-40
2021/09/15 07:41:44;;;;;;;3.03;1.20;;;;;;;;;;5068813;28;20053;-40
2021/09/15 07:44:11;;;;;;;2.40;1.20;;;;;;;;;;5073990;28;20021;-38
2021/09/15 07:46:38;;;;;;;4.40;1.20;;;;;;;;;;5073965;28;20479;-40
2021/09/15 07:49:05;;;;;;;2.33;1.10;;;;;;;;;;5073517;28;20384;-38
2021/09/15 07:51:33;;;;;;;2.40;1.10;;;;;;;;;;5070562;28;20091;-36
2021/09/15 07:54:01;;;;;;;2.50;1.27;;;;;;;;;;5071988;28;20028;-40
2021/09/15 07:56:28;;;;;;;2.20;1.00;;;;;;;;;;5073348;28;20507;-40
2021/09/15 07:58:55;;;;;;;2.75;1.27;;;;;;;;;;5073467;28;20056;-40
2021/09/15 08:01:25;;;;;;;4.82;1.30;;;;;;;;;;5073165;28;20019;-39
2021/09/15 08:03:54;;;;;;;2.08;1.13;;;;;;;;;;5069199;28;20039;-39
2021/09/15 08:06:22;;;;;;;1.58;0.95;;;;;;;;;;5073467;28;20116;-39
2021/09/15 08:08:49;;;;;;;2.22;1.17;;;;;;;;;;5073388;28;20460;-39
2021/09/15 08:11:16;;;;;;;2.65;1.13;;;;;;;;;;5072959;28;20147;-40
2021/09/15 08:13:43;;;;;;;2.22;1.17;;;;;;;;;;5068907;28;20349;-40
2021/09/15 08:16:10;;;;;;;1.98;1.00;;;;;;;;;;5073129;28;20103;-39
2021/09/15 08:18:37;;;;;;;3.55;1.00;;;;;;;;;;5073239;28;20426;-41
2021/09/15 08:21:05;;;;;;;3.97;1.30;;;;;;;;;;5072964;28;20341;-41
2021/09/15 08:23:32;;;;;;;3.95;1.00;;;;;;;;;;5068319;28;20043;-39
2021/09/15 08:25:59;;;;;;;1.95;1.08;;;;;;;;;;5072965;28;20549;-40
2021/09/15 08:28:26;;;;;;;4.05;0.95;;;;;;;;;;5073111;28;20059;-41
2021/09/15 08:30:54;;;;;;;2.17;0.88;;;;;;;;;;5072631;28;20013;-41
2021/09/15 08:33:21;;;;;;;2.53;0.93;;;;;;;;;;5068064;28;20028;-40
2021/09/15 08:35:48;;;;;;;2.45;1.08;;;;;;;;;;5072766;28;20115;-41
2021/09/15 08:38:15;;;;;;;3.88;0.95;;;;;;;;;;5072876;28;20525;-41
2021/09/15 08:40:42;;;;;;;2.38;0.98;;;;;;;;;;5072166;28;20035;-39
2021/09/15 08:43:09;;;;;;;2.25;1.10;;;;;;;;;;5068027;28;20103;-39
2021/09/15 08:45:36;;;;;;;2.20;1.10;;;;;;;;;;5072538;28;20044;-40
2021/09/15 08:48:03;;;;;;;1.75;1.08;;;;;;;;;;5072388;28;20027;-39
2021/09/15 08:50:31;;;;;;;1.48;0.98;;;;;;;;;;5072373;28;20024;-39
2021/09/15 08:52:58;;;;;;;2.92;0.90;;;;;;;;;;5069594;28;20129;-39
2021/09/15 08:55:25;;;;;;;3.75;1.13;;;;;;;;;;5070262;28;20031;-39
2021/09/15 08:57:52;;;;;;;2.03;0.77;;;;;;;;;;5072121;28;20538;-40
2021/09/15 09:00:19;;;;;;;2.20;1.10;;;;;;;;;;5053993;28;20029;-39
2021/09/15 09:02:47;;;;;;;2.17;0.80;;;;;;;;;;5072064;28;20715;-38
2021/09/15 09:05:15;;;;;;;1.77;0.80;;;;;;;;;;5049431;28;20430;-38
2021/09/15 09:07:42;;;;;;;1.80;0.90;;;;;;;;;;5072287;28;20486;-40
2021/09/15 09:10:10;;;;;;;1.92;0.77;;;;;;;;;;5072185;28;20024;-39
2021/09/15 09:12:38;;;;;;;1.92;0.73;;;;;;;;;;5071980;28;20024;-40
2021/09/15 09:15:16;;;;;;;3.83;0.90;;;;;;;;;;5067145;28;20050;-40
2021/09/15 09:17:44;;;;;;;2.28;1.05;;;;;;;;;;5072243;28;20017;-41
2021/09/15 09:20:31;;;;;;;1.58;0.88;;;;;;;;;;5071180;28;20150;-40
2021/09/15 09:22:58;;;;;;;1.88;0.80;;;;;;;;;;5071746;28;20491;-38
2021/09/15 09:25:26;;;;;;;2.33;1.10;;;;;;;;;;5067324;28;20182;-40
2021/09/15 09:27:53;;;;;;;1.60;0.82;;;;;;;;;;5072092;28;20095;-40
2021/09/15 09:30:35;;;;;;;1.52;0.88;;;;;;;;;;5071790;28;20017;-39
2021/09/15 09:33:03;;;;;;;1.67;0.90;;;;;;;;;;5053565;28;20035;-40
2021/09/15 09:35:39;;;;;;;3.22;0.88;;;;;;;;;;5067027;28;20048;-40
2021/09/15 09:38:16;;;;;;;4.35;1.05;;;;;;;;;;5072228;28;20529;-40
2021/09/15 09:40:58;;;;;;;1.80;0.90;;;;;;;;;;5071605;28;20545;-39
2021/09/15 09:43:26;;;;;;;1.00;0.70;;;;;;;;;;5071335;28;20469;-39
2021/09/15 09:45:53;;;;;;;1.98;0.88;;;;;;;;;;5066786;28;20035;-40
2021/09/15 09:48:31;;;;;;;2.08;0.95;;;;;;;;;;5054001;28;20498;-39
2021/09/15 09:50:58;;;;;;;4.10;0.90;;;;;;;;;;5071504;28;20437;-39
2021/09/15 09:53:25;;;;;;;1.50;0.70;;;;;;;;;;5071392;28;20020;-39
2021/09/15 09:55:54;;;;;;;2.88;1.13;;;;;;;;;;5066828;28;20111;-39
2021/09/15 09:58:25;;;;;;;2.50;0.80;;;;;;;;;;5071498;28;20029;-40
2021/09/15 10:00:55;;;;;;;1.63;0.80;;;;;;;;;;5070567;28;20055;-40
2021/09/15 10:03:22;;;;;;;3.33;1.08;;;;;;;;;;5070666;28;20025;-39
2021/09/15 10:05:51;;;;;;;4.95;1.05;;;;;;;;;;5066495;28;20028;-40
2021/09/15 10:08:22;;;;;;;1.65;0.70;;;;;;;;;;5071617;28;20138;-41
2021/09/15 10:10:50;;;;;;;2.55;0.77;;;;;;;;;;5071333;28;20078;-40
2021/09/15 10:13:18;;;;;;;1.48;0.80;;;;;;;;;;5071343;28;20104;-39
2021/09/15 10:15:53;;;;;;;2.45;0.85;;;;;;;;;;5067113;28;20023;-40
2021/09/15 10:18:21;;;;;;;1.65;0.70;;;;;;;;;;5071557;28;20035;-40
2021/09/15 10:20:51;;;;;;;1.42;0.85;;;;;;;;;;5071299;28;20154;-40
2021/09/15 10:23:38;;;;;;;1.30;0.70;;;;;;;;;;5071371;28;20023;-40
2021/09/15 10:26:23;;;;;;;2.67;0.75;;;;;;;;;;5060513;28;20443;-41
2021/09/15 10:29:08;;;;;;;1.70;0.70;;;;;;;;;;5064796;28;20024;-39
2021/09/15 10:31:53;;;;;;;1.38;0.70;;;;;;;;;;5050946;28;20021;-39
2021/09/15 10:34:41;;;;;;;2.05;0.85;;;;;;;;;;5032277;28;20091;-40
2021/09/15 10:37:09;;;;;;;5.47;1.00;;;;;;;;;;5057615;28;20033;-42
2021/09/15 10:39:53;;;;;;;3.80;0.80;;;;;;;;;;5069923;28;20017;-42
2021/09/15 10:42:48;;;;;;;3.75;0.90;;;;;;;;;;5069592;28;20130;-40
2021/09/15 10:45:18;;;;;;;2.38;1.10;;;;;;;;;;5070145;28;20033;-40
2021/09/15 10:47:46;;;;;;;2.67;0.82;;;;;;;;;;5066120;28;20021;-40
2021/09/15 10:50:34;;;;;;;4.13;1.10;;;;;;;;;;5069892;28;20016;-40
2021/09/15 10:53:05;;;;;;;10.15;1.10;;;;;;;;;;5047583;28;20033;-45
2021/09/15 10:55:41;;;;;;;1.65;1.00;;;;;;;;;;5050272;28;20017;-41
2021/09/15 10:58:12;;;;;;;12.63;1.10;;;;;;;;;;5056235;28;20162;-41
2021/09/15 11:00:50;;;;;;;2.13;0.90;;;;;;;;;;5048929;28;20020;-47
2021/09/15 11:03:37;;;;;;;3.25;0.88;;;;;;;;;;5050090;28;20021;-41
2021/09/15 11:06:13;;;;;;;5.85;0.90;;;;;;;;;;5050512;28;20423;-46
2021/09/15 11:08:45;;;;;;;4.97;1.02;;;;;;;;;;5050539;28;20028;-53
2021/09/15 11:11:32;;;;;;;5.40;0.82;;;;;;;;;;5069684;28;20013;-48
2021/09/15 11:14:04;;;;;;;3.42;0.90;;;;;;;;;;5053221;28;20408;-51
2021/09/15 11:16:35;;;;;;;4.75;1.02;;;;;;;;;;5056955;28;20055;-45
2021/09/15 11:19:14;;;;;;;8.20;0.95;;;;;;;;;;5071328;28;20025;-60
2021/09/15 11:21:45;;;;;;;1.52;0.75;;;;;;;;;;5072668;28;20066;-61
2021/09/15 11:24:14;;;;;;;3.60;0.98;;;;;;;;;;5072773;28;20048;-45
2021/09/15 11:26:46;;;;;;;6.43;0.80;;;;;;;;;;5070558;28;20400;-58
2021/09/15 11:29:14;;;;;;;6.47;0.93;;;;;;;;;;5071178;28;20020;-55
2021/09/15 11:31:42;;;;;;;1.65;0.65;;;;;;;;;;5072700;28;20020;-51
2021/09/15 11:34:14;;;;;;;4.03;0.80;;;;;;;;;;5072382;28;20476;-61
2021/09/15 11:36:48;;;;;;;1.27;0.70;;;;;;;;;;5072487;28;20124;-55
2021/09/15 11:39:17;;;;;;;2.97;0.63;;;;;;;;;;5070852;28;20055;-61
2021/09/15 11:41:44;;;;;;;2.95;0.70;;;;;;;;;;5073210;28;20043;-61
2021/09/15 11:44:11;;;;;;;4.57;0.77;;;;;;;;;;5072405;28;20017;-59
2021/09/15 11:46:38;;;;;;;4.63;0.90;;;;;;;;;;5073442;28;20029;-54
2021/09/15 11:49:05;;;;;;;4.85;0.70;;;;;;;;;;5068601;28;20483;-58
2021/09/15 11:51:34;;;;;;;5.18;0.60;;;;;;;;;;5073012;28;20032;-49
2021/09/15 11:54:11;;;;;;;1.95;0.60;;;;;;;;;;5072330;28;20103;-49
2021/09/15 11:56:52;;;;;;;1.63;0.70;;;;;;;;;;5073215;28;20028;-56
2021/09/15 11:59:20;;;;;;;1.30;0.50;;;;;;;;;;5068433;28;20029;-49
2021/09/15 12:01:47;;;;;;;1.40;0.60;;;;;;;;;;5073046;28;20060;-54
2021/09/15 12:04:22;;;;;;;3.63;0.52;;;;;;;;;;5072517;28;20027;-59
2021/09/15 12:06:49;;;;;;;1.50;0.65;;;;;;;;;;5057129;28;20068;-44
2021/09/15 12:09:16;;;;;;;2.15;0.82;;;;;;;;;;5057124;28;20524;-43
2021/09/15 12:11:52;;;;;;;0.93;0.40;;;;;;;;;;5036811;28;20025;-43
2021/09/15 12:14:20;;;;;;;3.25;0.60;;;;;;;;;;5052162;28;20119;-42
2021/09/15 12:16:47;;;;;;;3.38;0.80;;;;;;;;;;5051498;28;20070;-41
2021/09/15 12:19:18;;;;;;;1.70;0.70;;;;;;;;;;5059610;28;20029;-43
2021/09/15 12:21:48;;;;;;;1.92;0.60;;;;;;;;;;5033799;28;20048;-42
2021/09/15 12:24:16;;;;;;;1.75;0.55;;;;;;;;;;5051731;28;20087;-43
2021/09/15 12:26:44;;;;;;;1.08;0.60;;;;;;;;;;5051277;28;20119;-42
2021/09/15 12:29:12;;;;;;;3.13;0.70;;;;;;;;;;5054362;28;20083;-46
2021/09/15 12:31:41;;;;;;;5.03;0.68;;;;;;;;;;5060128;28;20016;-45
2021/09/15 12:34:08;;;;;;;4.38;0.80;;;;;;;;;;5051990;28;20681;-46
2021/09/15 12:36:35;;;;;;;1.45;0.63;;;;;;;;;;5052273;28;20040;-46
2021/09/15 12:39:04;;;;;;;1.63;0.75;;;;;;;;;;5059084;28;20059;-50
2021/09/15 12:41:50;;;;;;;6.40;1.02;;;;;;;;;;5061709;28;20025;-49
2021/09/15 12:44:23;;;;;;;6.35;0.90;;;;;;;;;;5068507;28;20032;-54
2021/09/15 12:46:51;;;;;;;5.13;0.98;;;;;;;;;;5071850;28;20040;-51
2021/09/15 12:49:28;;;;;;;4.43;1.00;;;;;;;;;;5066479;28;20039;-51
2021/09/15 12:52:01;;;;;;;3.60;0.90;;;;;;;;;;5065711;28;20098;-53
2021/09/15 12:54:28;;;;;;;2.17;0.73;;;;;;;;;;5052182;28;20024;-44
2021/09/15 12:57:12;;;;;;;3.85;0.90;;;;;;;;;;5033979;28;20071;-44
2021/09/15 12:59:39;;;;;;;3.40;0.80;;;;;;;;;;5055247;28;20021;-45
2021/09/15 13:02:22;;;;;;;9.63;1.10;;;;;;;;;;5053894;28;20025;-43
2021/09/15 13:04:50;;;;;;;12.10;1.75;;;;;;;;;;5055325;28;20114;-45
2021/09/15 13:07:20;;;;;;;11.63;1.33;;;;;;;;;;5055465;28;20628;-45
2021/09/15 13:09:47;;;;;;;6.75;1.00;;;;;;;;;;5057408;28;20028;-43
2021/09/15 13:12:18;;;;;;;9.20;1.10;;;;;;;;;;5061774;28;20025;-43
2021/09/15 13:14:47;;;;;;;9.95;0.93;;;;;;;;;;5055884;28;20013;-47
2021/09/15 13:17:14;;;;;;;8.48;1.05;;;;;;;;;;5049928;28;20050;-44
2021/09/15 13:19:43;;;;;;;5.22;0.98;;;;;;;;;;5053093;28;20033;-40
2021/09/15 13:22:10;;;;;;;4.40;1.20;;;;;;;;;;5050563;28;20032;-48
2021/09/15 13:24:37;;;;;;;11.30;1.35;;;;;;;;;;5059683;28;20055;-47
2021/09/15 13:27:05;;;;;;;9.88;1.00;;;;;;;;;;5055327;28;20037;-52
2021/09/15 13:29:34;;;;;;;5.20;0.88;;;;;;;;;;5055824;28;21097;-46
2021/09/15 13:32:02;;;;;;;11.55;1.50;;;;;;;;;;5044662;28;20060;-45
2021/09/15 13:34:29;;;;;;;15.52;1.63;;;;;;;;;;5054182;28;20477;-50
2021/09/15 13:36:56;;;;;;;13.07;1.50;;;;;;;;;;5053261;28;20044;-47
2021/09/15 13:39:23;;;;;;;7.25;1.10;;;;;;;;;;5052608;28;20594;-45
2021/09/15 13:41:50;;;;;;;15.40;1.40;;;;;;;;;;5061775;28;20464;-45
2021/09/15 13:44:17;;;;;;;10.98;1.20;;;;;;;;;;5059762;28;20075;-44
2021/09/15 13:46:44;;;;;;;17.95;1.70;;;;;;;;;;5060230;28;20070;-48
2021/09/15 13:49:11;;;;;;;15.50;1.45;;;;;;;;;;5057583;28;20074;-44
2021/09/15 13:51:38;;;;;;;13.32;1.50;;;;;;;;;;5034491;28;20472;-44
2021/09/15 13:54:05;;;;;;;11.65;1.58;;;;;;;;;;5058082;28;20021;-46
2021/09/15 13:56:32;;;;;;;20.83;1.92;;;;;;;;;;5062245;28;20051;-43
2021/09/15 13:58:59;;;;;;;12.07;1.48;;;;;;;;;;5032713;28;20414;-41
2021/09/15 14:01:26;;;;;;;15.07;1.30;;;;;;;;;;5057241;28;20046;-48
2021/09/15 14:03:53;;;;;;;16.52;1.50;;;;;;;;;;5053244;28;20751;-46
2021/09/15 14:06:20;;;;;;;17.67;1.50;;;;;;;;;;5050365;28;20033;-45
2021/09/15 14:08:47;;;;;;;11.75;1.88;;;;;;;;;;5050093;28;20083;-42
2021/09/15 14:11:14;;;;;;;14.50;1.52;;;;;;;;;;5052691;28;20035;-45
2021/09/15 14:13:41;;;;;;;17.50;1.20;;;;;;;;;;5050085;28;20517;-47
2021/09/15 14:16:10;;;;;;;13.55;1.48;;;;;;;;;;5049529;28;20092;-49
2021/09/15 14:18:37;;;;;;;10.07;1.50;;;;;;;;;;5069224;28;20025;-59
2021/09/15 14:21:04;;;;;;;13.80;1.60;;;;;;;;;;5054151;28;20043;-44
2021/09/15 14:23:32;;;;;;;15.50;1.85;;;;;;;;;;5056834;28;20021;-45
2021/09/15 14:25:59;;;;;;;6.53;1.50;;;;;;;;;;5032192;28;20063;-46
2021/09/15 14:28:26;;;;;;;9.98;1.65;;;;;;;;;;5048399;28;20035;-48
2021/09/15 14:30:53;;;;;;;14.38;1.48;;;;;;;;;;5049637;28;20024;-41
2021/09/15 14:33:20;;;;;;;10.23;1.58;;;;;;;;;;5040142;28;20070;-45
2021/09/15 14:35:47;;;;;;;13.18;1.67;;;;;;;;;;5048071;28;20823;-44
2021/09/15 14:38:14;;;;;;;6.70;1.20;;;;;;;;;;5051345;28;20100;-50
2021/09/15 14:40:41;;;;;;;11.95;1.33;;;;;;;;;;5050895;28;20021;-41
2021/09/15 14:43:08;;;;;;;6.05;1.48;;;;;;;;;;5052107;28;20483;-41
2021/09/15 14:45:35;;;;;;;11.38;1.35;;;;;;;;;;5031288;28;20826;-42
2021/09/15 14:48:02;;;;;;;7.03;1.55;;;;;;;;;;5050635;28;20024;-47
2021/09/15 14:50:29;;;;;;;9.65;1.42;;;;;;;;;;5052321;28;20037;-44
2021/09/15 14:52:56;;;;;;;8.05;1.30;;;;;;;;;;5056697;28;20025;-41